Time;durP1;ratioP1;P1;durP2;ratioP2;P2;SDS_P1;SDS_P2;PMS_P1;PMS_P2;Temp;Humidity;BMP_temperature;BMP_pressure;BME280_temperature;BME280_humidity;BME280_pressure;Samples;Min_cycle;Max_cycle;Signal;HPM_P1;HPM_P2
2023/06/03 00:00:15;;;;;;;3.13;0.70;;;15.80;53.00;;;;;;4969095;28;20651;-72
2023/06/03 00:02:44;;;;;;;2.75;0.80;;;15.80;53.00;;;;;;4967508;28;20277;-72
2023/06/03 00:05:11;;;;;;;4.00;1.00;;;15.70;53.10;;;;;;4969384;28;20055;-72
2023/06/03 00:07:38;;;;;;;4.28;0.95;;;15.70;53.20;;;;;;4967952;28;20058;-72
2023/06/03 00:10:06;;;;;;;3.88;0.90;;;15.60;53.10;;;;;;4984328;28;20043;-72
2023/06/03 00:12:34;;;;;;;2.97;0.83;;;15.60;53.00;;;;;;4965980;28;20078;-72
2023/06/03 00:15:01;;;;;;;5.30;0.90;;;15.60;53.00;;;;;;4968833;28;20279;-72
2023/06/03 00:17:28;;;;;;;2.83;0.80;;;15.50;53.00;;;;;;4989440;28;20047;-72
2023/06/03 00:20:06;;;;;;;4.03;0.90;;;15.50;52.90;;;;;;4957121;28;20043;-72
2023/06/03 00:22:34;;;;;;;3.00;0.80;;;15.50;52.80;;;;;;4969675;28;20058;-72
2023/06/03 00:25:02;;;;;;;3.10;1.00;;;15.40;52.80;;;;;;4994563;28;20066;-72
2023/06/03 00:27:29;;;;;;;3.67;1.00;;;15.30;52.70;;;;;;4978630;28;20283;-72
2023/06/03 00:29:56;;;;;;;2.92;0.63;;;15.30;52.60;;;;;;4954822;28;20625;-72
2023/06/03 00:32:23;;;;;;;4.72;1.10;;;15.20;52.30;;;;;;4970118;28;20048;-72
2023/06/03 00:34:50;;;;;;;3.90;0.70;;;15.20;52.30;;;;;;4967649;28;20153;-72
2023/06/03 00:37:19;;;;;;;2.77;0.90;;;15.10;52.50;;;;;;4974025;28;20055;-72
2023/06/03 00:39:46;;;;;;;3.05;0.70;;;15.00;52.60;;;;;;4974344;28;20314;-72
2023/06/03 00:42:13;;;;;;;3.45;0.75;;;15.00;52.70;;;;;;4973759;28;20212;-72
2023/06/03 00:44:40;;;;;;;3.10;0.80;;;15.00;52.60;;;;;;4957938;28;20531;-72
2023/06/03 00:47:08;;;;;;;3.40;0.95;;;15.00;52.50;;;;;;4973684;28;20043;-72
2023/06/03 00:50:20;;;;;;;3.57;0.80;;;14.90;52.30;;;;;;4964343;28;20124;-72
2023/06/03 00:52:50;;;;;;;4.20;0.80;;;14.80;52.60;;;;;;4987243;28;20275;-71
2023/06/03 00:55:17;;;;;;;3.15;0.80;;;14.80;52.50;;;;;;4973686;28;20059;-72
2023/06/03 00:57:46;;;;;;;2.95;0.70;;;14.70;52.60;;;;;;4989574;28;20335;-72
2023/06/03 01:00:13;;;;;;;3.58;0.80;;;14.70;52.60;;;;;;4973208;28;20054;-72
2023/06/03 01:02:43;;;;;;;4.00;0.90;;;14.70;52.60;;;;;;4956825;28;20050;-72
2023/06/03 01:05:11;;;;;;;4.40;0.85;;;14.60;52.70;;;;;;4973564;28;20382;-72
2023/06/03 01:07:48;;;;;;;4.80;0.80;;;14.60;52.60;;;;;;4957218;28;20071;-71
2023/06/03 01:10:22;;;;;;;2.83;0.60;;;14.50;52.40;;;;;;4957171;28;20158;-72
2023/06/03 01:13:09;;;;;;;3.08;0.80;;;14.50;52.50;;;;;;4974302;28;20054;-72
2023/06/03 01:15:40;;;;;;;3.23;0.73;;;14.40;52.70;;;;;;4974591;28;20647;-72
2023/06/03 01:18:07;;;;;;;2.45;0.60;;;14.40;52.90;;;;;;4957144;28;20342;-72
2023/06/03 01:20:35;;;;;;;2.83;0.57;;;14.30;53.00;;;;;;4973042;28;20528;-72
2023/06/03 01:23:20;;;;;;;3.08;0.85;;;14.30;53.10;;;;;;4989221;28;20473;-71
2023/06/03 01:25:50;;;;;;;4.28;0.70;;;14.20;53.00;;;;;;4989441;28;20050;-71
2023/06/03 01:28:18;;;;;;;3.40;0.80;;;14.20;53.00;;;;;;4969907;28;20074;-71
2023/06/03 01:30:45;;;;;;;3.33;0.70;;;14.10;52.90;;;;;;4969778;28;20243;-71
2023/06/03 01:33:13;;;;;;;2.72;0.52;;;14.10;53.10;;;;;;4969831;28;20074;-71
2023/06/03 01:35:41;;;;;;;3.00;1.00;;;14.00;53.20;;;;;;4969764;28;20055;-71
2023/06/03 01:38:08;;;;;;;2.63;0.57;;;14.00;53.10;;;;;;4969828;28;20254;-71
2023/06/03 01:40:39;;;;;;;3.57;0.80;;;14.00;53.00;;;;;;4985989;28;20051;-71
2023/06/03 01:43:07;;;;;;;3.22;0.60;;;13.90;53.10;;;;;;4953188;28;20322;-72
2023/06/03 01:45:34;;;;;;;2.50;0.80;;;13.90;53.10;;;;;;4969554;28;20051;-71
2023/06/03 01:48:01;;;;;;;2.97;0.90;;;13.90;53.30;;;;;;4969206;28;20134;-72
2023/06/03 01:50:28;;;;;;;2.40;0.70;;;13.90;53.40;;;;;;4969183;28;20050;-71
2023/06/03 01:52:55;;;;;;;3.03;0.57;;;13.80;53.40;;;;;;4968704;28;20573;-71
2023/06/03 01:55:22;;;;;;;3.28;0.60;;;13.80;53.30;;;;;;4985856;28;20279;-71
2023/06/03 01:57:50;;;;;;;2.83;0.60;;;13.70;53.30;;;;;;4986050;28;20438;-72
2023/06/03 02:00:18;;;;;;;3.15;0.73;;;13.70;53.30;;;;;;4953167;28;20521;-71
2023/06/03 02:02:46;;;;;;;3.28;0.70;;;13.70;53.30;;;;;;4985590;28;20052;-71
2023/06/03 02:05:12;;;;;;;2.60;0.70;;;13.60;53.30;;;;;;4969378;28;20052;-71
2023/06/03 02:07:39;;;;;;;2.20;0.60;;;13.60;53.40;;;;;;4985500;28;20351;-71
2023/06/03 02:10:08;;;;;;;2.60;0.70;;;13.60;53.50;;;;;;4968957;28;20087;-72
2023/06/03 02:12:35;;;;;;;3.40;0.82;;;13.60;53.60;;;;;;4953177;28;20532;-72
2023/06/03 02:15:04;;;;;;;2.38;0.60;;;13.50;53.70;;;;;;4968843;28;20055;-71
2023/06/03 02:17:31;;;;;;;3.07;0.60;;;13.50;53.60;;;;;;4952767;28;20067;-71
2023/06/03 02:19:58;;;;;;;2.60;0.60;;;13.50;53.70;;;;;;4968302;28;20825;-71
2023/06/03 02:22:26;;;;;;;15.25;1.50;;;13.50;53.80;;;;;;4969144;28;20146;-72
2023/06/03 02:24:53;;;;;;;9.32;1.33;;;13.40;53.90;;;;;;4951832;28;20043;-71
2023/06/03 02:27:20;;;;;;;9.18;1.23;;;13.30;54.00;;;;;;4967428;28;20146;-71
2023/06/03 02:29:50;;;;;;;5.10;0.80;;;13.30;53.90;;;;;;4967736;28;20079;-71
2023/06/03 02:32:20;;;;;;;6.90;1.02;;;13.30;53.80;;;;;;4951018;28;20291;-72
2023/06/03 02:34:50;;;;;;;10.40;1.83;;;13.30;54.00;;;;;;4951753;28;20430;-71
2023/06/03 02:37:17;;;;;;;8.15;1.00;;;13.30;54.00;;;;;;4952917;28;20485;-71
2023/06/03 02:39:44;;;;;;;5.35;0.68;;;13.20;53.90;;;;;;4969443;28;20107;-72
2023/06/03 02:42:11;;;;;;;5.07;0.80;;;13.10;54.00;;;;;;4952349;28;20760;-71
2023/06/03 02:44:38;;;;;;;4.07;0.60;;;13.10;53.90;;;;;;4969090;28;20775;-71
2023/06/03 02:47:07;;;;;;;3.38;0.70;;;13.10;54.00;;;;;;4952549;28;20622;-71
2023/06/03 02:49:36;;;;;;;4.20;0.80;;;13.10;54.00;;;;;;4952373;28;20059;-71
2023/06/03 02:52:03;;;;;;;3.03;0.68;;;13.00;54.00;;;;;;4952507;28;20051;-71
2023/06/03 02:54:31;;;;;;;3.43;0.70;;;13.00;54.10;;;;;;4952460;28;20043;-71
2023/06/03 02:56:58;;;;;;;3.72;0.70;;;13.00;54.10;;;;;;4968901;28;20264;-71
2023/06/03 02:59:24;;;;;;;3.50;0.70;;;13.00;54.10;;;;;;4968525;28;20047;-72
2023/06/03 03:01:51;;;;;;;2.80;0.70;;;12.90;54.20;;;;;;4952372;28;20510;-71
2023/06/03 03:04:20;;;;;;;2.70;0.80;;;12.90;54.30;;;;;;4952302;28;20251;-71
2023/06/03 03:06:49;;;;;;;3.17;0.80;;;12.90;54.30;;;;;;4985125;28;20130;-71
2023/06/03 03:09:16;;;;;;;3.67;0.80;;;12.80;54.10;;;;;;4968695;28;20255;-71
2023/06/03 03:11:45;;;;;;;3.25;0.82;;;12.80;54.20;;;;;;4968219;28;20074;-71
2023/06/03 03:14:14;;;;;;;4.13;0.90;;;12.80;54.40;;;;;;4968264;28;20610;-72
2023/06/03 03:16:41;;;;;;;4.05;0.73;;;12.70;54.70;;;;;;4952354;28;20075;-71
2023/06/03 03:19:09;;;;;;;3.70;0.50;;;12.70;54.80;;;;;;4952237;28;20094;-71
2023/06/03 03:21:37;;;;;;;3.17;0.80;;;12.70;54.80;;;;;;4967841;28;20279;-71
2023/06/03 03:24:11;;;;;;;2.55;0.57;;;12.70;54.80;;;;;;4951859;28;20065;-71
2023/06/03 03:26:41;;;;;;;4.75;0.90;;;12.60;54.90;;;;;;4967828;28;20047;-72
2023/06/03 03:29:08;;;;;;;3.45;0.77;;;12.60;55.00;;;;;;4952152;28;20102;-72
2023/06/03 03:31:35;;;;;;;3.03;0.97;;;12.50;55.10;;;;;;4968008;28;20051;-71
2023/06/03 03:34:03;;;;;;;4.68;0.82;;;12.50;55.20;;;;;;4952082;28;20287;-72
2023/06/03 03:36:31;;;;;;;3.05;0.80;;;12.50;55.30;;;;;;4968116;28;20600;-72
2023/06/03 03:39:06;;;;;;;2.90;0.90;;;12.50;55.50;;;;;;4967738;28;20062;-72
2023/06/03 03:41:45;;;;;;;2.78;0.70;;;12.50;55.60;;;;;;4951703;28;20112;-71
2023/06/03 03:44:13;;;;;;;2.70;0.70;;;12.50;55.70;;;;;;4967893;28;20126;-71
2023/06/03 03:46:47;;;;;;;3.50;0.70;;;12.50;55.90;;;;;;4968117;28;20297;-71
2023/06/03 03:49:20;;;;;;;3.28;0.88;;;12.50;56.00;;;;;;4983903;28;20381;-72
2023/06/03 03:51:47;;;;;;;3.75;0.88;;;12.40;56.10;;;;;;4967328;28;20054;-71
2023/06/03 03:54:14;;;;;;;5.55;0.90;;;12.40;56.10;;;;;;4966627;28;20059;-71
2023/06/03 03:56:41;;;;;;;4.03;0.80;;;12.30;56.20;;;;;;4967063;28;20055;-72
2023/06/03 03:59:10;;;;;;;3.45;0.80;;;12.30;56.30;;;;;;4950468;28;20330;-71
2023/06/03 04:01:40;;;;;;;3.20;0.80;;;12.30;56.50;;;;;;4983850;28;20058;-71
2023/06/03 04:04:37;;;;;;;3.13;0.70;;;12.30;56.60;;;;;;4966880;28;20352;-71
2023/06/03 04:07:04;;;;;;;3.40;1.05;;;12.20;56.60;;;;;;4967421;28;20574;-71
2023/06/03 04:09:31;;;;;;;3.63;0.90;;;12.20;56.60;;;;;;4962414;28;20654;-71
2023/06/03 04:11:58;;;;;;;4.13;0.82;;;12.20;56.80;;;;;;4965804;28;20702;-71
2023/06/03 04:14:45;;;;;;;3.85;0.90;;;12.20;56.90;;;;;;4950924;28;20581;-72
2023/06/03 04:17:13;;;;;;;2.50;0.70;;;12.10;56.90;;;;;;4951177;28;20059;-71
2023/06/03 04:19:42;;;;;;;3.72;1.02;;;12.10;56.90;;;;;;4967631;28;20058;-71
2023/06/03 04:22:20;;;;;;;5.17;0.87;;;12.10;56.90;;;;;;4964741;28;20773;-71
2023/06/03 04:24:47;;;;;;;3.45;0.80;;;12.10;56.80;;;;;;4951616;28;20391;-71
2023/06/03 04:27:14;;;;;;;3.30;0.75;;;12.10;56.70;;;;;;4968302;28;20051;-71
2023/06/03 04:29:43;;;;;;;3.72;1.00;;;12.00;56.90;;;;;;4951410;28;20130;-72
2023/06/03 04:32:10;;;;;;;4.15;1.00;;;12.00;56.70;;;;;;4951414;28;20060;-71
2023/06/03 04:34:49;;;;;;;3.93;1.00;;;12.00;56.90;;;;;;4950943;28;20055;-71
2023/06/03 04:37:16;;;;;;;4.15;0.90;;;12.00;56.90;;;;;;4967889;28;20318;-71
2023/06/03 04:39:43;;;;;;;4.10;0.90;;;12.00;56.90;;;;;;4968551;28;20170;-71
2023/06/03 04:42:12;;;;;;;3.63;0.65;;;12.00;56.90;;;;;;4950821;28;20111;-71
2023/06/03 04:44:40;;;;;;;3.05;0.80;;;12.00;57.00;;;;;;4967350;28;20058;-71
2023/06/03 04:47:10;;;;;;;3.40;0.80;;;11.90;57.00;;;;;;4951487;28;20057;-72
2023/06/03 04:49:39;;;;;;;5.57;0.80;;;11.90;57.10;;;;;;4950686;28;20248;-71
2023/06/03 04:52:09;;;;;;;3.17;0.98;;;11.90;57.30;;;;;;4965275;28;20090;-72
2023/06/03 04:54:41;;;;;;;4.10;0.90;;;11.90;57.40;;;;;;4963807;28;20303;-72
2023/06/03 04:57:09;;;;;;;2.67;0.68;;;11.90;57.50;;;;;;4948617;28;20051;-72
2023/06/03 04:59:36;;;;;;;5.03;0.80;;;11.90;57.70;;;;;;4964355;28;20185;-72
2023/06/03 05:02:05;;;;;;;3.40;0.90;;;11.90;57.90;;;;;;4960386;28;20793;-72
2023/06/03 05:04:34;;;;;;;2.80;1.00;;;11.90;57.90;;;;;;4952014;28;20135;-72
2023/06/03 05:07:03;;;;;;;4.60;1.00;;;11.90;58.10;;;;;;4952454;28;20130;-72
2023/06/03 05:09:31;;;;;;;2.90;0.85;;;11.90;58.30;;;;;;4952202;28;20051;-72
2023/06/03 05:11:59;;;;;;;3.93;0.80;;;11.90;58.30;;;;;;4967104;28;20166;-72
2023/06/03 05:14:26;;;;;;;2.90;0.73;;;11.90;58.40;;;;;;4969404;28;20813;-72
2023/06/03 05:16:53;;;;;;;2.90;0.90;;;11.90;58.50;;;;;;4953674;28;20940;-72
2023/06/03 05:19:20;;;;;;;4.75;0.90;;;11.90;58.80;;;;;;4953606;28;20110;-72
2023/06/03 05:21:49;;;;;;;3.30;0.90;;;11.90;58.90;;;;;;4953896;28;20445;-72
2023/06/03 05:24:17;;;;;;;3.23;1.00;;;11.90;59.20;;;;;;4953789;28;20058;-72
2023/06/03 05:26:44;;;;;;;3.17;0.80;;;11.90;59.30;;;;;;4971570;28;20795;-72
2023/06/03 05:29:11;;;;;;;5.18;0.95;;;11.90;59.20;;;;;;4954085;28;20051;-72
2023/06/03 05:31:38;;;;;;;4.35;1.10;;;11.90;59.40;;;;;;4980206;28;20059;-72
2023/06/03 05:34:06;;;;;;;4.40;0.90;;;11.90;59.30;;;;;;4966577;28;20055;-72
2023/06/03 05:36:35;;;;;;;3.90;0.90;;;11.90;59.30;;;;;;4952855;28;20565;-72
2023/06/03 05:39:04;;;;;;;3.25;0.93;;;11.90;59.20;;;;;;4967148;28;20444;-72
2023/06/03 05:41:33;;;;;;;4.78;0.80;;;11.90;59.20;;;;;;4970706;28;20079;-72
2023/06/03 05:44:00;;;;;;;2.97;0.70;;;11.90;59.10;;;;;;4969649;28;20088;-72
2023/06/03 05:46:27;;;;;;;2.85;0.80;;;11.90;59.10;;;;;;4969538;28;20082;-72
2023/06/03 05:48:54;;;;;;;2.67;0.80;;;11.90;59.10;;;;;;4966795;28;20103;-72
2023/06/03 05:51:23;;;;;;;4.57;1.10;;;12.00;59.10;;;;;;4967496;28;20283;-72
2023/06/03 05:53:50;;;;;;;3.65;0.93;;;12.00;59.00;;;;;;4967336;28;20044;-72
2023/06/03 05:56:22;;;;;;;3.28;1.00;;;12.00;59.00;;;;;;4951042;28;20519;-72
2023/06/03 05:58:49;;;;;;;4.07;1.00;;;12.00;58.90;;;;;;4968433;28;20526;-72
2023/06/03 06:01:17;;;;;;;3.27;0.90;;;12.10;58.80;;;;;;4968489;28;20062;-73
2023/06/03 06:03:45;;;;;;;5.05;1.10;;;12.10;58.70;;;;;;4968544;28;20736;-72
2023/06/03 06:06:14;;;;;;;2.95;0.77;;;12.10;58.70;;;;;;4969091;28;20055;-72
2023/06/03 06:08:42;;;;;;;4.18;0.93;;;12.10;58.80;;;;;;4969957;28;20055;-72
2023/06/03 06:11:10;;;;;;;2.80;0.77;;;12.20;58.80;;;;;;4968830;28;20053;-72
2023/06/03 06:13:39;;;;;;;3.70;1.00;;;12.20;58.70;;;;;;4951308;28;20134;-73
2023/06/03 06:16:06;;;;;;;3.33;0.90;;;12.20;58.90;;;;;;4977515;28;20290;-72
2023/06/03 06:18:36;;;;;;;3.78;0.85;;;12.30;59.00;;;;;;4966645;28;20554;-72
2023/06/03 06:21:04;;;;;;;3.60;0.85;;;12.30;58.90;;;;;;4968597;28;20086;-72
2023/06/03 06:23:35;;;;;;;3.40;1.02;;;12.40;59.00;;;;;;4952103;28;20051;-72
2023/06/03 06:26:04;;;;;;;3.17;0.60;;;12.40;59.00;;;;;;4952505;28;21022;-72
2023/06/03 06:28:32;;;;;;;3.63;0.90;;;12.50;59.10;;;;;;4969280;28;20263;-72
2023/06/03 06:31:06;;;;;;;3.47;0.90;;;12.50;58.90;;;;;;4951451;28;20050;-72
2023/06/03 06:33:36;;;;;;;3.35;0.80;;;12.50;58.70;;;;;;4950605;28;20054;-72
2023/06/03 06:36:16;;;;;;;3.22;0.90;;;12.50;58.60;;;;;;4964206;28;20599;-72
2023/06/03 06:38:44;;;;;;;4.17;0.90;;;12.60;58.70;;;;;;4966267;28;20054;-72
2023/06/03 06:41:14;;;;;;;2.92;0.70;;;12.70;58.70;;;;;;4968753;28;20284;-72
2023/06/03 06:43:41;;;;;;;4.35;0.80;;;12.80;58.60;;;;;;4968468;28;20134;-72
2023/06/03 06:46:11;;;;;;;2.80;0.73;;;12.80;58.60;;;;;;4952175;28;20099;-72
2023/06/03 06:48:39;;;;;;;3.72;0.80;;;12.80;58.60;;;;;;4950733;28;20573;-72
2023/06/03 06:51:07;;;;;;;4.77;0.90;;;12.90;58.50;;;;;;4947980;28;20051;-72
2023/06/03 06:53:36;;;;;;;3.25;0.63;;;12.90;58.30;;;;;;4966332;28;20254;-72
2023/06/03 06:56:11;;;;;;;6.35;1.30;;;13.00;58.20;;;;;;4951250;28;20054;-72
2023/06/03 06:58:51;;;;;;;3.97;0.73;;;13.10;58.30;;;;;;4944044;28;20186;-72
2023/06/03 07:01:19;;;;;;;3.67;0.77;;;13.10;58.40;;;;;;4950848;28;20085;-72
2023/06/03 07:03:49;;;;;;;2.67;0.70;;;13.20;58.30;;;;;;4950294;28;20136;-72
2023/06/03 07:06:17;;;;;;;3.33;0.70;;;13.30;58.30;;;;;;4967341;28;21250;-72
2023/06/03 07:08:47;;;;;;;4.85;0.82;;;13.30;58.20;;;;;;4950827;28;20123;-72
2023/06/03 07:11:15;;;;;;;2.85;0.63;;;13.30;58.30;;;;;;4966956;28;20055;-72
2023/06/03 07:13:47;;;;;;;2.80;0.80;;;13.40;58.20;;;;;;4952556;28;20047;-72
2023/06/03 07:16:19;;;;;;;4.40;0.70;;;13.50;58.00;;;;;;4968706;28;20059;-72
2023/06/03 07:18:46;;;;;;;4.30;0.70;;;13.50;58.00;;;;;;4952490;28;20263;-72
2023/06/03 07:21:16;;;;;;;3.92;0.80;;;13.60;57.90;;;;;;4951993;28;20543;-72
2023/06/03 07:23:49;;;;;;;2.88;0.70;;;13.70;57.40;;;;;;4952573;28;20047;-72
2023/06/03 07:26:39;;;;;;;2.53;0.50;;;13.90;56.90;;;;;;4972586;28;20052;-72
2023/06/03 07:29:06;;;;;;;2.60;0.70;;;13.90;56.80;;;;;;4915573;28;20115;-73
2023/06/03 07:31:36;;;;;;;2.95;0.50;;;13.90;56.70;;;;;;4916738;28;20277;-72
2023/06/03 07:34:05;;;;;;;3.35;0.80;;;14.00;56.70;;;;;;4932783;28;20047;-72
2023/06/03 07:36:39;;;;;;;16.02;1.50;;;14.10;56.70;;;;;;4916905;28;20044;-73
2023/06/03 07:39:08;;;;;;;3.15;0.60;;;14.10;56.60;;;;;;4932642;28;20056;-73
2023/06/03 07:41:50;;;;;;;4.47;0.70;;;14.20;56.50;;;;;;4917166;28;20100;-73
2023/06/03 07:44:44;;;;;;;2.97;0.52;;;14.30;56.40;;;;;;4932980;28;20359;-73
2023/06/03 07:47:14;;;;;;;2.75;0.80;;;14.40;56.60;;;;;;4948414;28;20564;-73
2023/06/03 07:49:44;;;;;;;3.42;0.68;;;14.50;56.40;;;;;;4950154;28;20052;-73
2023/06/03 07:52:16;;;;;;;3.00;0.65;;;14.50;56.10;;;;;;4948317;28;20223;-73
2023/06/03 07:54:42;;;;;;;106.20;7.97;;;14.60;55.90;;;;;;4950030;28;20066;-73
2023/06/03 07:57:11;;;;;;;3.45;0.70;;;14.70;55.60;;;;;;4948993;28;20272;-73
2023/06/03 07:59:38;;;;;;;4.15;0.70;;;14.80;55.40;;;;;;4932962;28;20051;-73
2023/06/03 08:02:08;;;;;;;4.13;0.70;;;14.80;55.30;;;;;;4948121;28;20060;-73
2023/06/03 08:04:37;;;;;;;3.83;0.65;;;14.90;55.20;;;;;;4933273;28;20783;-73
2023/06/03 08:07:05;;;;;;;3.53;0.40;;;15.00;54.80;;;;;;4948657;28;20048;-73
2023/06/03 08:09:35;;;;;;;3.33;0.50;;;15.00;54.50;;;;;;4948649;28;20324;-73
2023/06/03 08:12:04;;;;;;;4.07;0.80;;;15.20;54.20;;;;;;4949641;28;20058;-72
2023/06/03 08:14:33;;;;;;;3.70;0.70;;;15.20;54.00;;;;;;4949849;28;20056;-72
2023/06/03 08:17:06;;;;;;;4.00;0.50;;;15.30;53.70;;;;;;4948701;28;20127;-73
2023/06/03 08:19:34;;;;;;;4.40;0.50;;;15.40;53.50;;;;;;4949994;28;20044;-73
2023/06/03 08:22:07;;;;;;;2.53;0.50;;;15.50;52.80;;;;;;4948543;28;20284;-72
2023/06/03 08:24:34;;;;;;;2.47;0.50;;;15.50;52.50;;;;;;4949758;28;20516;-73
2023/06/03 08:27:01;;;;;;;4.05;0.80;;;15.60;52.00;;;;;;4949440;28;20597;-73
2023/06/03 08:29:28;;;;;;;3.63;0.55;;;15.60;51.90;;;;;;4948565;28;20510;-73
2023/06/03 08:31:55;;;;;;;3.20;0.47;;;15.70;51.90;;;;;;4949443;28;20051;-73
2023/06/03 08:34:22;;;;;;;3.38;0.40;;;15.80;51.00;;;;;;4932355;28;20276;-73
2023/06/03 08:36:49;;;;;;;3.70;0.60;;;15.80;50.70;;;;;;4949577;28;20099;-72
2023/06/03 08:39:18;;;;;;;3.10;0.40;;;15.80;50.70;;;;;;4919372;28;20058;-73
2023/06/03 08:41:46;;;;;;;25.77;2.17;;;15.90;50.30;;;;;;4952496;28;20060;-73
2023/06/03 08:44:21;;;;;;;4.93;0.73;;;16.00;49.90;;;;;;4951605;28;20094;-73
2023/06/03 08:46:57;;;;;;;7.68;0.82;;;16.10;49.40;;;;;;4935594;28;20260;-73
2023/06/03 08:49:32;;;;;;;3.75;0.40;;;16.20;49.60;;;;;;4951688;28;20139;-73
2023/06/03 08:52:03;;;;;;;7.35;0.63;;;16.40;48.80;;;;;;4953098;28;20056;-73
2023/06/03 08:54:36;;;;;;;7.40;0.80;;;16.40;48.70;;;;;;4952953;28;20089;-73
2023/06/03 08:57:18;;;;;;;5.33;0.53;;;16.50;48.30;;;;;;4919455;28;20052;-73
2023/06/03 08:59:48;;;;;;;5.60;0.60;;;16.60;48.10;;;;;;4935110;28;20288;-73
2023/06/03 09:02:15;;;;;;;3.15;0.60;;;16.70;47.70;;;;;;4919203;28;20502;-73
2023/06/03 09:04:43;;;;;;;2.67;0.43;;;16.80;47.80;;;;;;4952829;28;20102;-73
2023/06/03 09:07:12;;;;;;;4.55;0.40;;;16.90;47.00;;;;;;4951595;28;20047;-73
2023/06/03 09:09:42;;;;;;;4.67;0.60;;;16.90;46.80;;;;;;4952235;28;20111;-73
2023/06/03 09:12:11;;;;;;;3.60;0.40;;;17.00;46.90;;;;;;4934982;28;20290;-73
2023/06/03 09:14:39;;;;;;;8.63;0.80;;;17.00;46.50;;;;;;4952799;28;20054;-73
2023/06/03 09:17:07;;;;;;;4.38;0.70;;;17.00;46.10;;;;;;4951147;28;21023;-73
2023/06/03 09:19:35;;;;;;;3.08;0.52;;;17.00;45.90;;;;;;4951139;28;20056;-73
2023/06/03 09:22:03;;;;;;;3.20;0.50;;;17.00;46.10;;;;;;4952124;28;20843;-73
2023/06/03 09:24:30;;;;;;;2.47;0.40;;;17.00;46.20;;;;;;4950650;28;20252;-73
2023/06/03 09:26:58;;;;;;;3.30;0.50;;;17.00;45.70;;;;;;4952035;28;20047;-73
2023/06/03 09:29:26;;;;;;;2.67;0.43;;;17.10;45.70;;;;;;4950674;28;20052;-73
2023/06/03 09:31:53;;;;;;;5.30;0.50;;;17.10;45.30;;;;;;4949806;28;20090;-73
2023/06/03 09:34:22;;;;;;;4.27;0.50;;;17.10;45.20;;;;;;4952110;28;20131;-73
2023/06/03 09:36:50;;;;;;;2.53;0.57;;;17.10;44.70;;;;;;4950324;28;20260;-73
2023/06/03 09:39:32;;;;;;;1.92;0.50;;;17.20;44.70;;;;;;4951430;28;20062;-73
2023/06/03 09:42:01;;;;;;;2.45;0.50;;;17.20;45.20;;;;;;4934846;28;20589;-73
2023/06/03 09:44:41;;;;;;;3.33;0.52;;;17.20;45.30;;;;;;4956853;28;20131;-73
2023/06/03 09:47:08;;;;;;;154.90;13.07;;;17.30;44.90;;;;;;4985676;28;20142;-73
2023/06/03 09:49:36;;;;;;;7.88;0.70;;;17.40;44.70;;;;;;4988824;28;20716;-73
2023/06/03 09:52:07;;;;;;;3.55;0.50;;;17.50;44.80;;;;;;4989123;28;20058;-73
2023/06/03 09:54:34;;;;;;;8.38;0.63;;;17.50;45.00;;;;;;4990525;28;20046;-73
2023/06/03 09:57:12;;;;;;;2.75;0.47;;;17.50;44.50;;;;;;4988150;28;20053;-73
2023/06/03 09:59:42;;;;;;;3.27;0.60;;;17.60;44.60;;;;;;4990180;28;20195;-73
2023/06/03 10:02:11;;;;;;;2.85;0.50;;;17.80;44.90;;;;;;4988473;28;20326;-73
2023/06/03 10:04:40;;;;;;;3.65;0.57;;;17.80;44.60;;;;;;4972518;28;20682;-73
2023/06/03 10:07:08;;;;;;;3.55;0.50;;;17.90;44.60;;;;;;4989428;28;20051;-73
2023/06/03 10:09:36;;;;;;;2.83;0.43;;;18.00;44.10;;;;;;4989883;28;20055;-73
2023/06/03 10:12:03;;;;;;;4.00;0.80;;;18.00;44.30;;;;;;4988485;28;20058;-73
2023/06/03 10:14:31;;;;;;;4.18;0.60;;;18.10;44.60;;;;;;4990016;28;20486;-73
2023/06/03 10:17:06;;;;;;;8.43;1.30;;;18.20;44.90;;;;;;4989290;28;20133;-73
2023/06/03 10:19:34;;;;;;;3.53;0.55;;;18.30;44.90;;;;;;5004323;28;20059;-73
2023/06/03 10:22:03;;;;;;;3.75;0.70;;;18.30;44.30;;;;;;4989384;28;20087;-73
2023/06/03 10:24:31;;;;;;;10.13;1.13;;;18.40;43.60;;;;;;4988313;28;20059;-73
2023/06/03 10:26:59;;;;;;;3.03;0.55;;;18.50;43.30;;;;;;4987994;28;20812;-73
2023/06/03 10:29:26;;;;;;;4.35;0.60;;;18.50;43.60;;;;;;4988435;28;20545;-73
2023/06/03 10:31:55;;;;;;;7.05;0.70;;;18.60;43.90;;;;;;4988342;28;20063;-73
2023/06/03 10:34:22;;;;;;;3.80;0.52;;;18.70;43.60;;;;;;4990110;28;20062;-73
2023/06/03 10:36:57;;;;;;;2.60;0.50;;;18.70;43.20;;;;;;4988642;28;20053;-73
2023/06/03 10:39:26;;;;;;;6.28;0.75;;;18.70;43.10;;;;;;4987919;28;20784;-73
2023/06/03 10:41:55;;;;;;;3.38;0.50;;;18.80;43.00;;;;;;4987979;28;20046;-73
2023/06/03 10:44:22;;;;;;;3.65;0.70;;;18.80;43.00;;;;;;4988063;28;20299;-73
2023/06/03 10:46:58;;;;;;;3.45;0.60;;;18.90;43.30;;;;;;5021004;28;20053;-74
2023/06/03 10:49:29;;;;;;;7.63;0.83;;;18.90;42.80;;;;;;4988003;28;20555;-73
2023/06/03 10:52:20;;;;;;;3.63;0.60;;;19.00;42.70;;;;;;4988103;28;20878;-74
2023/06/03 10:54:57;;;;;;;2.70;0.40;;;19.00;42.60;;;;;;4987987;28;20051;-73
2023/06/03 10:57:34;;;;;;;2.90;0.47;;;19.10;42.90;;;;;;4987214;28;20544;-74
2023/06/03 11:00:03;;;;;;;3.05;0.50;;;19.20;42.80;;;;;;4988342;28;20055;-73
2023/06/03 11:03:06;;;;;;;2.50;0.43;;;19.20;42.70;;;;;;4987656;28;20078;-73
2023/06/03 11:05:33;;;;;;;3.28;0.52;;;19.30;42.30;;;;;;4989327;28;20338;-74
2023/06/03 11:08:00;;;;;;;4.18;0.70;;;19.40;42.50;;;;;;4987343;28;20059;-74
2023/06/03 11:10:44;;;;;;;6.65;0.90;;;19.50;42.00;;;;;;4987690;28;20150;-74
2023/06/03 11:13:31;;;;;;;3.80;0.50;;;19.50;42.10;;;;;;4987465;28;20130;-74
2023/06/03 11:16:00;;;;;;;4.50;0.63;;;19.60;41.80;;;;;;4987331;28;20047;-74
2023/06/03 11:18:29;;;;;;;3.10;0.50;;;19.70;42.10;;;;;;4987639;28;20274;-73
2023/06/03 11:20:56;;;;;;;4.15;0.60;;;19.70;42.30;;;;;;4988536;28;20521;-73
2023/06/03 11:23:41;;;;;;;4.25;0.68;;;19.70;42.50;;;;;;4987220;28;20527;-74
2023/06/03 11:26:34;;;;;;;2.22;0.60;;;19.80;43.20;;;;;;4988953;28;20081;-74
2023/06/03 11:29:03;;;;;;;1.90;0.60;;;19.90;42.80;;;;;;4988913;28;20051;-74
2023/06/03 11:31:31;;;;;;;2.83;0.50;;;19.90;42.50;;;;;;4987219;28;20251;-74
2023/06/03 11:34:22;;;;;;;3.08;0.60;;;20.00;42.20;;;;;;4987296;28;20500;-74
2023/06/03 11:36:51;;;;;;;16.17;1.45;;;20.00;41.60;;;;;;4989133;28;20047;-74
2023/06/03 11:39:19;;;;;;;5.18;0.50;;;20.00;40.80;;;;;;4987448;28;20416;-73
2023/06/03 11:42:06;;;;;;;3.70;0.60;;;20.10;40.90;;;;;;4987281;28;20057;-74
2023/06/03 11:44:34;;;;;;;3.60;0.70;;;20.10;40.00;;;;;;4988056;28;20365;-74
2023/06/03 11:47:01;;;;;;;2.15;0.47;;;20.20;40.30;;;;;;4971161;28;20457;-74
2023/06/03 11:49:31;;;;;;;3.15;0.80;;;20.30;41.00;;;;;;4987043;28;20257;-73
2023/06/03 11:52:00;;;;;;;3.55;0.60;;;20.30;40.70;;;;;;4987042;28;20051;-74
2023/06/03 11:54:27;;;;;;;7.00;1.00;;;20.30;41.10;;;;;;4987260;28;20051;-74
2023/06/03 11:56:56;;;;;;;3.33;0.55;;;20.40;40.60;;;;;;4988440;28;20261;-74
2023/06/03 11:59:28;;;;;;;4.95;0.80;;;20.50;40.50;;;;;;4986960;28;20536;-74
2023/06/03 12:01:59;;;;;;;3.05;0.80;;;20.50;40.20;;;;;;4986910;28;20303;-74
2023/06/03 12:04:27;;;;;;;4.55;0.68;;;20.60;40.10;;;;;;4986809;28;20051;-74
2023/06/03 12:06:55;;;;;;;15.10;1.57;;;20.60;40.70;;;;;;4987022;28;20054;-74
2023/06/03 12:09:24;;;;;;;3.50;0.88;;;20.70;40.10;;;;;;4986716;28;20333;-74
2023/06/03 12:11:51;;;;;;;3.92;0.82;;;20.70;41.00;;;;;;4986404;28;20703;-74
2023/06/03 12:14:26;;;;;;;2.13;0.82;;;20.80;40.20;;;;;;4986612;28;20436;-73
2023/06/03 12:16:54;;;;;;;2.30;0.70;;;20.80;40.80;;;;;;4986877;28;20509;-74
2023/06/03 12:19:21;;;;;;;5.17;0.80;;;20.90;40.70;;;;;;4986788;28;20552;-74
2023/06/03 12:21:58;;;;;;;4.25;0.70;;;21.00;40.70;;;;;;4986185;28;20270;-74
2023/06/03 12:24:30;;;;;;;3.53;0.70;;;21.00;41.00;;;;;;4986890;28;20154;-74
2023/06/03 12:26:58;;;;;;;3.75;0.65;;;21.10;40.90;;;;;;4986833;28;20126;-74
2023/06/03 12:29:25;;;;;;;3.20;0.60;;;21.10;40.00;;;;;;4986968;28;20057;-74
2023/06/03 12:31:59;;;;;;;8.30;1.20;;;21.10;40.10;;;;;;4986306;28;20047;-74
2023/06/03 12:34:34;;;;;;;2.47;0.50;;;21.20;40.10;;;;;;4988107;28;20772;-74
2023/06/03 12:37:03;;;;;;;7.85;1.17;;;21.30;40.20;;;;;;4987972;28;20051;-74
2023/06/03 12:39:48;;;;;;;3.85;0.70;;;21.40;40.00;;;;;;4986693;28;20054;-74
2023/06/03 12:42:16;;;;;;;3.17;0.63;;;21.40;39.80;;;;;;4969510;28;20102;-74
2023/06/03 12:44:49;;;;;;;2.77;0.80;;;21.50;39.50;;;;;;4986166;28;20059;-74
2023/06/03 12:47:17;;;;;;;2.35;0.55;;;21.50;40.90;;;;;;4988010;28;20717;-74
2023/06/03 12:49:45;;;;;;;3.67;0.77;;;21.60;39.70;;;;;;4986374;28;20186;-74
2023/06/03 12:52:16;;;;;;;26.13;2.67;;;21.70;39.70;;;;;;4986146;28;20094;-74
2023/06/03 12:54:44;;;;;;;3.67;0.88;;;21.70;39.40;;;;;;4970407;28;20047;-74
2023/06/03 12:57:11;;;;;;;4.47;0.70;;;21.70;39.40;;;;;;4987679;28;20054;-73
2023/06/03 13:00:00;;;;;;;3.33;0.80;;;21.80;39.10;;;;;;4985756;28;20247;-74